createdAt,value
2023-04-07T00:00:03.584Z,0.00
2023-04-07T00:01:03.564Z,0.00
2023-04-07T00:02:03.570Z,0.00
2023-04-07T00:03:03.578Z,0.00
2023-04-07T00:04:03.938Z,0.00
2023-04-07T00:05:03.543Z,0.00
2023-04-07T00:06:03.414Z,0.00
2023-04-07T00:07:03.386Z,0.00
2023-04-07T00:08:03.355Z,0.00
2023-04-07T00:09:03.327Z,0.00
2023-04-07T00:10:03.310Z,0.00
2023-04-07T00:11:03.289Z,0.00
2023-04-07T00:12:03.250Z,0.00
2023-04-07T00:13:03.217Z,0.00
2023-04-07T00:14:03.182Z,0.00
2023-04-07T00:15:03.167Z,0.00
2023-04-07T00:16:03.211Z,0.00
2023-04-07T00:17:03.116Z,0.00
2023-04-07T00:18:03.161Z,0.00
2023-04-07T00:19:03.064Z,0.00
2023-04-07T00:20:03.009Z,0.00
2023-04-07T00:21:02.995Z,0.00
2023-04-07T00:22:02.961Z,0.00
2023-04-07T00:23:02.926Z,0.00
2023-04-07T00:24:02.898Z,0.00
2023-04-07T00:25:02.868Z,0.00
2023-04-07T00:26:02.840Z,0.00
2023-04-07T00:27:02.839Z,0.00
2023-04-07T00:28:02.795Z,0.00
2023-04-07T00:29:02.753Z,0.00
2023-04-07T00:30:02.721Z,0.00
2023-04-07T00:31:02.723Z,0.00
2023-04-07T00:32:02.662Z,0.00
2023-04-07T00:33:02.647Z,0.00
2023-04-07T00:34:02.602Z,0.00
2023-04-07T00:35:02.654Z,0.00
2023-04-07T00:36:02.600Z,0.00
2023-04-07T00:37:02.516Z,0.00
2023-04-07T00:38:02.487Z,0.00
2023-04-07T00:39:02.459Z,0.00
2023-04-07T00:40:02.427Z,0.00
2023-04-07T00:41:02.507Z,0.00
2023-04-07T00:42:02.374Z,0.00
2023-04-07T00:43:02.369Z,0.00
2023-04-07T00:44:02.318Z,0.00
2023-04-07T00:45:02.289Z,0.00
2023-04-07T00:46:02.284Z,0.00
2023-04-07T00:47:02.232Z,0.00
2023-04-07T00:48:02.240Z,0.00
2023-04-07T00:49:02.175Z,0.00
2023-04-07T00:50:02.142Z,0.00
2023-04-07T00:51:02.112Z,0.00
2023-04-07T00:52:02.080Z,0.00
2023-04-07T00:53:02.074Z,0.00
2023-04-07T00:54:02.028Z,0.00
2023-04-07T00:55:01.998Z,0.00
2023-04-07T00:56:01.988Z,0.00
2023-04-07T00:57:01.957Z,0.00
2023-04-07T00:58:01.907Z,0.00
2023-04-07T00:59:01.902Z,0.00
2023-04-07T01:00:01.876Z,0.00
2023-04-07T01:01:01.828Z,0.00
2023-04-07T01:02:01.904Z,0.00
2023-04-07T01:03:02.003Z,0.00
2023-04-07T01:04:01.793Z,0.00
2023-04-07T01:05:01.876Z,0.00
2023-04-07T01:06:01.680Z,0.00
2023-04-07T01:07:01.645Z,0.00
2023-04-07T01:08:01.630Z,0.00
2023-04-07T01:09:01.595Z,0.00
2023-04-07T01:10:01.555Z,0.00
2023-04-07T01:11:01.529Z,0.00
2023-04-07T01:12:01.505Z,0.00
2023-04-07T01:13:01.473Z,0.00
2023-04-07T01:14:01.440Z,0.00
2023-04-07T01:15:01.432Z,0.00
2023-04-07T01:16:01.418Z,0.00
2023-04-07T01:17:01.358Z,0.00
2023-04-07T01:18:01.362Z,0.00
2023-04-07T01:19:01.302Z,0.00
2023-04-07T01:20:01.276Z,0.00
2023-04-07T01:21:01.243Z,0.00
2023-04-07T01:22:01.219Z,0.00
2023-04-07T01:23:01.179Z,0.00
2023-04-07T01:24:01.159Z,0.00
2023-04-07T01:25:01.122Z,0.00
2023-04-07T01:26:01.094Z,0.00
2023-04-07T01:27:01.069Z,0.00
2023-04-07T01:28:01.034Z,0.00
2023-04-07T01:29:01.010Z,0.00
2023-04-07T01:30:00.975Z,0.00
2023-04-07T01:31:00.978Z,0.00
2023-04-07T01:32:00.935Z,0.00
2023-04-07T01:33:00.949Z,0.00
2023-04-07T01:34:00.863Z,0.00
2023-04-07T01:35:00.843Z,0.00
2023-04-07T01:36:00.814Z,0.00
2023-04-07T01:37:00.798Z,0.00
2023-04-07T01:38:00.744Z,0.00
2023-04-07T01:39:00.726Z,0.00
2023-04-07T01:40:00.689Z,0.00
2023-04-07T01:41:00.666Z,0.00
2023-04-07T01:42:00.630Z,0.00
2023-04-07T01:43:00.603Z,0.00
2023-04-07T01:44:00.582Z,0.00
2023-04-07T01:45:00.547Z,0.00
2023-04-07T01:46:00.520Z,0.00
2023-04-07T01:47:00.549Z,0.00
2023-04-07T01:48:00.482Z,0.00
2023-04-07T01:49:00.430Z,0.00
2023-04-07T01:50:00.400Z,0.00
2023-04-07T01:51:00.383Z,0.00
2023-04-07T01:52:00.356Z,0.00
2023-04-07T01:53:00.317Z,0.00
2023-04-07T01:54:00.287Z,0.00
2023-04-07T01:55:00.256Z,0.00
2023-04-07T01:56:00.229Z,0.00
2023-04-07T01:57:00.201Z,0.00
2023-04-07T01:58:00.168Z,0.00
2023-04-07T01:59:00.218Z,0.00
2023-04-07T02:00:00.115Z,0.00
2023-04-07T02:01:00.128Z,0.00
2023-04-07T02:02:00.182Z,0.00
2023-04-07T02:03:00.278Z,0.00
2023-04-07T02:04:00.301Z,0.00
2023-04-07T02:04:59.972Z,0.00
2023-04-07T02:05:59.940Z,0.00
2023-04-07T02:06:59.919Z,0.00
2023-04-07T02:07:59.890Z,0.00
2023-04-07T02:08:59.857Z,0.00
2023-04-07T02:09:59.824Z,0.00
2023-04-07T02:10:59.801Z,0.00
2023-04-07T02:11:59.767Z,0.00
2023-04-07T02:12:59.735Z,0.00
2023-04-07T02:13:59.707Z,0.00
2023-04-07T02:14:59.679Z,0.00
2023-04-07T02:15:59.660Z,0.00
2023-04-07T02:16:59.620Z,0.00
2023-04-07T02:17:59.618Z,0.00
2023-04-07T02:18:59.582Z,0.00
2023-04-07T02:19:59.533Z,0.00
2023-04-07T02:20:59.503Z,0.00
2023-04-07T02:21:59.476Z,0.00
2023-04-07T02:22:59.446Z,0.00
2023-04-07T02:23:59.418Z,0.00
2023-04-07T02:24:59.389Z,0.00
2023-04-07T02:25:59.363Z,0.00
2023-04-07T02:26:59.331Z,0.00
2023-04-07T02:27:59.320Z,0.00
2023-04-07T02:28:59.276Z,0.00
2023-04-07T02:29:59.250Z,0.00
2023-04-07T02:30:59.213Z,0.00
2023-04-07T02:31:59.207Z,0.00
2023-04-07T02:32:59.210Z,0.00
2023-04-07T02:33:59.134Z,0.00
2023-04-07T02:34:59.117Z,0.00
2023-04-07T02:35:59.170Z,0.00
2023-04-07T02:36:59.086Z,0.00
2023-04-07T02:37:59.014Z,0.00
2023-04-07T02:38:58.998Z,0.00
2023-04-07T02:39:58.954Z,0.00
2023-04-07T02:40:58.933Z,0.00
2023-04-07T02:41:58.898Z,0.00
2023-04-07T02:42:58.871Z,0.00
2023-04-07T02:43:58.837Z,0.00
2023-04-07T02:44:58.808Z,0.00
2023-04-07T02:45:58.826Z,0.00
2023-04-07T02:46:58.756Z,0.00
2023-04-07T02:47:58.747Z,0.00
2023-04-07T02:48:58.692Z,0.00
2023-04-07T02:49:58.667Z,0.00
2023-04-07T02:50:58.654Z,0.00
2023-04-07T02:51:58.603Z,0.00
2023-04-07T02:52:58.572Z,0.00
2023-04-07T02:53:58.544Z,0.00
2023-04-07T02:54:58.513Z,0.00
2023-04-07T02:55:58.492Z,0.00
2023-04-07T02:56:58.458Z,0.00
2023-04-07T02:57:58.426Z,0.00
2023-04-07T02:58:58.399Z,0.00
2023-04-07T02:59:58.366Z,0.00
2023-04-07T03:00:58.358Z,0.00
2023-04-07T03:01:58.508Z,0.00
2023-04-07T03:02:58.440Z,0.00
2023-04-07T03:03:58.343Z,0.00
2023-04-07T03:04:58.223Z,0.00
2023-04-07T03:05:58.193Z,0.00
2023-04-07T03:06:58.190Z,0.00
2023-04-07T03:07:58.134Z,0.00
2023-04-07T03:08:58.104Z,0.00
2023-04-07T03:09:58.076Z,0.00
2023-04-07T03:10:58.047Z,0.00
2023-04-07T03:11:58.018Z,0.00
2023-04-07T03:12:57.987Z,0.00
2023-04-07T03:13:57.960Z,0.00
2023-04-07T03:14:57.929Z,0.00
2023-04-07T03:15:57.900Z,0.00
2023-04-07T03:16:57.888Z,0.00
2023-04-07T03:17:57.882Z,0.00
2023-04-07T03:18:57.825Z,0.00
2023-04-07T03:19:57.784Z,0.00
2023-04-07T03:20:57.769Z,0.00
2023-04-07T03:21:57.722Z,0.00
2023-04-07T03:22:57.712Z,0.00
2023-04-07T03:23:57.666Z,0.00
2023-04-07T03:24:57.632Z,0.00
2023-04-07T03:25:57.608Z,0.00
2023-04-07T03:26:57.612Z,0.00
2023-04-07T03:27:57.576Z,0.00
2023-04-07T03:28:57.517Z,0.00
2023-04-07T03:29:57.494Z,0.00
2023-04-07T03:30:57.529Z,0.00
2023-04-07T03:31:57.431Z,0.00
2023-04-07T03:32:57.464Z,0.00
2023-04-07T03:33:57.372Z,0.00
2023-04-07T03:34:57.350Z,0.00
2023-04-07T03:35:57.390Z,0.00
2023-04-07T03:36:57.287Z,0.00
2023-04-07T03:37:57.257Z,0.00
2023-04-07T03:38:57.240Z,0.00
2023-04-07T03:39:57.202Z,0.00
2023-04-07T03:40:57.169Z,0.00
2023-04-07T03:41:57.136Z,0.00
2023-04-07T03:42:57.111Z,0.00
2023-04-07T03:43:57.076Z,0.00
2023-04-07T03:44:57.045Z,0.00
2023-04-07T03:45:57.050Z,0.00
2023-04-07T03:46:56.993Z,0.00
2023-04-07T03:47:57.022Z,0.00
2023-04-07T03:48:56.927Z,0.00
2023-04-07T03:49:56.900Z,0.00
2023-04-07T03:50:56.867Z,0.00
2023-04-07T03:51:56.844Z,0.00
2023-04-07T03:52:56.811Z,0.00
2023-04-07T03:53:56.782Z,0.00
2023-04-07T03:54:56.777Z,0.00
2023-04-07T03:55:56.753Z,0.00
2023-04-07T03:56:56.691Z,0.00
2023-04-07T03:57:56.663Z,0.00
2023-04-07T03:58:56.633Z,0.00
2023-04-07T03:59:56.605Z,0.00
2023-04-07T04:00:56.574Z,0.00
2023-04-07T04:01:56.589Z,0.00
2023-04-07T04:02:56.658Z,0.00
2023-04-07T04:03:56.866Z,0.00
2023-04-07T04:04:56.501Z,0.00
2023-04-07T04:05:56.429Z,0.00
2023-04-07T04:06:56.398Z,0.00
2023-04-07T04:07:56.371Z,0.00
2023-04-07T04:08:56.339Z,0.00
2023-04-07T04:09:56.331Z,0.00
2023-04-07T04:10:56.307Z,0.00
2023-04-07T04:11:56.261Z,0.00
2023-04-07T04:12:56.232Z,0.00
2023-04-07T04:13:56.230Z,0.00
2023-04-07T04:14:56.165Z,0.00
2023-04-07T04:15:56.177Z,0.00
2023-04-07T04:16:56.113Z,0.00
2023-04-07T04:17:56.083Z,0.00
2023-04-07T04:18:56.047Z,0.00
2023-04-07T04:19:56.020Z,0.00
2023-04-07T04:20:55.988Z,0.00
2023-04-07T04:21:55.963Z,0.00
2023-04-07T04:22:55.945Z,0.00
2023-04-07T04:23:55.912Z,0.00
2023-04-07T04:24:55.872Z,0.00
2023-04-07T04:25:55.848Z,0.00
2023-04-07T04:26:55.835Z,0.00
2023-04-07T04:27:55.784Z,0.00
2023-04-07T04:28:55.756Z,0.00
2023-04-07T04:29:55.725Z,0.00
2023-04-07T04:30:55.713Z,0.00
2023-04-07T04:31:55.667Z,0.00
2023-04-07T04:32:55.769Z,0.00
2023-04-07T04:33:55.660Z,0.00
2023-04-07T04:34:55.581Z,0.00
2023-04-07T04:35:55.581Z,0.00
2023-04-07T04:36:55.555Z,0.00
2023-04-07T04:37:55.505Z,0.00
2023-04-07T04:38:55.460Z,0.00
2023-04-07T04:39:55.457Z,0.00
2023-04-07T04:40:55.406Z,0.00
2023-04-07T04:41:55.374Z,0.00
2023-04-07T04:42:55.363Z,0.00
2023-04-07T04:43:55.324Z,0.00
2023-04-07T04:44:55.284Z,0.00
2023-04-07T04:45:55.255Z,0.00
2023-04-07T04:46:55.293Z,0.00
2023-04-07T04:47:55.232Z,0.00
2023-04-07T04:48:55.168Z,0.00
2023-04-07T04:49:55.153Z,0.00
2023-04-07T04:50:55.106Z,0.00
2023-04-07T04:51:55.077Z,0.00
2023-04-07T04:52:55.049Z,0.00
2023-04-07T04:53:55.363Z,0.00
2023-04-07T04:54:54.989Z,0.00
2023-04-07T04:55:54.976Z,0.00
2023-04-07T04:56:54.934Z,5.63
2023-04-07T04:57:54.927Z,5.63
2023-04-07T04:58:54.897Z,5.63
2023-04-07T04:59:54.846Z,5.63
2023-04-07T05:00:54.819Z,5.63
2023-04-07T05:01:54.879Z,5.63
2023-04-07T05:02:55.066Z,5.63
2023-04-07T05:03:55.198Z,5.63
2023-04-07T05:04:54.882Z,5.63
2023-04-07T05:05:54.674Z,5.63
2023-04-07T05:06:54.636Z,5.63
2023-04-07T05:07:54.603Z,5.63
2023-04-07T05:08:54.588Z,5.63
2023-04-07T05:09:54.545Z,5.63
2023-04-07T05:10:54.516Z,11.25
2023-04-07T05:11:54.485Z,11.25
2023-04-07T05:12:54.456Z,11.25
2023-04-07T05:13:54.469Z,11.25
2023-04-07T05:14:54.414Z,11.25
2023-04-07T05:15:54.397Z,11.25
2023-04-07T05:16:54.349Z,16.88
2023-04-07T05:17:54.330Z,16.88
2023-04-07T05:18:54.274Z,16.88
2023-04-07T05:19:54.245Z,22.50
2023-04-07T05:20:54.216Z,22.50
2023-04-07T05:21:54.187Z,22.50
2023-04-07T05:22:54.159Z,22.50
2023-04-07T05:23:54.207Z,28.13
2023-04-07T05:24:54.097Z,28.13
2023-04-07T05:25:54.065Z,28.13
2023-04-07T05:26:54.041Z,28.13
2023-04-07T05:27:54.017Z,28.13
2023-04-07T05:28:53.991Z,33.75
2023-04-07T05:29:53.957Z,33.75
2023-04-07T05:30:53.948Z,33.75
2023-04-07T05:31:53.935Z,33.75
2023-04-07T05:32:53.893Z,33.75
2023-04-07T05:33:53.827Z,33.75
2023-04-07T05:34:53.801Z,39.38
2023-04-07T05:35:53.790Z,39.38
2023-04-07T05:36:53.758Z,39.38
2023-04-07T05:37:53.711Z,39.38
2023-04-07T05:38:53.682Z,39.38
2023-04-07T05:39:53.653Z,39.38
2023-04-07T05:40:53.623Z,45.00
2023-04-07T05:41:53.595Z,45.00
2023-04-07T05:42:53.564Z,45.00
2023-04-07T05:43:53.618Z,45.00
2023-04-07T05:44:53.505Z,45.00
2023-04-07T05:45:53.517Z,45.00
2023-04-07T05:46:53.463Z,50.63
2023-04-07T05:47:53.423Z,50.63
2023-04-07T05:48:53.388Z,50.63
2023-04-07T05:49:53.535Z,50.63
2023-04-07T05:50:53.326Z,50.63
2023-04-07T05:51:53.300Z,56.25
2023-04-07T05:52:53.269Z,56.25
2023-04-07T05:53:53.457Z,56.25
2023-04-07T05:54:53.209Z,61.88
2023-04-07T05:55:53.192Z,61.88
2023-04-07T05:56:53.150Z,61.88
2023-04-07T05:57:53.125Z,61.88
2023-04-07T05:58:53.091Z,67.50
2023-04-07T05:59:53.065Z,67.50
2023-04-07T06:00:53.031Z,67.50
2023-04-07T06:01:53.086Z,73.13
2023-04-07T06:02:53.123Z,73.13
2023-04-07T06:03:53.024Z,73.13
2023-04-07T06:04:52.947Z,78.75
2023-04-07T06:05:52.886Z,78.75
2023-04-07T06:06:52.854Z,78.75
2023-04-07T06:07:52.828Z,84.38
2023-04-07T06:08:52.799Z,84.38
2023-04-07T06:09:52.779Z,90.00
2023-04-07T06:10:52.735Z,84.38
2023-04-07T06:11:52.711Z,84.38
2023-04-07T06:12:52.682Z,90.00
2023-04-07T06:13:52.659Z,95.63
2023-04-07T06:14:52.628Z,95.63
2023-04-07T06:15:52.590Z,101.25
2023-04-07T06:16:52.582Z,106.88
2023-04-07T06:17:52.593Z,106.88
2023-04-07T06:18:52.524Z,112.50
2023-04-07T06:19:52.480Z,118.13
2023-04-07T06:20:52.444Z,123.75
2023-04-07T06:21:52.409Z,123.75
2023-04-07T06:22:52.384Z,129.38
2023-04-07T06:23:52.350Z,135.00
2023-04-07T06:24:52.326Z,135.00
2023-04-07T06:25:52.301Z,135.00
2023-04-07T06:26:52.265Z,140.63
2023-04-07T06:27:52.235Z,140.63
2023-04-07T06:28:52.210Z,140.63
2023-04-07T06:29:52.176Z,135.00
2023-04-07T06:30:52.187Z,135.00
2023-04-07T06:31:52.117Z,135.00
2023-04-07T06:32:52.122Z,135.00
2023-04-07T06:33:52.059Z,135.00
2023-04-07T06:34:52.052Z,129.38
2023-04-07T06:35:52.002Z,129.38
2023-04-07T06:36:51.986Z,129.38
2023-04-07T06:37:51.943Z,129.38
2023-04-07T06:38:51.916Z,123.75
2023-04-07T06:39:51.884Z,123.75
2023-04-07T06:40:51.860Z,123.75
2023-04-07T06:41:51.827Z,123.75
2023-04-07T06:42:51.797Z,129.38
2023-04-07T06:43:51.770Z,129.38
2023-04-07T06:44:51.751Z,129.38
2023-04-07T06:45:51.734Z,129.38
2023-04-07T06:46:51.690Z,129.38
2023-04-07T06:47:51.691Z,129.38
2023-04-07T06:48:51.624Z,129.38
2023-04-07T06:49:51.593Z,135.00
2023-04-07T06:50:51.812Z,135.00
2023-04-07T06:51:51.537Z,135.00
2023-04-07T06:52:51.512Z,135.00
2023-04-07T06:53:51.485Z,135.00
2023-04-07T06:54:51.454Z,135.00
2023-04-07T06:55:51.430Z,135.00
2023-04-07T06:56:53.471Z,129.38
2023-04-07T06:57:51.364Z,129.38
2023-04-07T06:58:51.335Z,129.38
2023-04-07T06:59:51.308Z,129.38
2023-04-07T07:00:51.280Z,129.38
2023-04-07T07:01:51.307Z,129.38
2023-04-07T07:02:51.334Z,129.38
2023-04-07T07:03:51.727Z,129.38
2023-04-07T07:04:51.186Z,129.38
2023-04-07T07:05:51.134Z,129.38
2023-04-07T07:06:51.126Z,129.38
2023-04-07T07:07:51.078Z,129.38
2023-04-07T07:08:51.050Z,135.00
2023-04-07T07:09:51.019Z,135.00
2023-04-07T07:10:50.997Z,135.00
2023-04-07T07:11:50.970Z,140.63
2023-04-07T07:12:50.952Z,140.63
2023-04-07T07:13:50.906Z,140.63
2023-04-07T07:14:50.881Z,140.63
2023-04-07T07:15:50.948Z,140.63
2023-04-07T07:16:50.822Z,140.63
2023-04-07T07:17:50.915Z,140.63
2023-04-07T07:18:50.765Z,146.25
2023-04-07T07:19:50.737Z,146.25
2023-04-07T07:20:50.729Z,146.25
2023-04-07T07:21:50.677Z,146.25
2023-04-07T07:22:50.670Z,146.25
2023-04-07T07:23:50.704Z,146.25
2023-04-07T07:24:50.594Z,140.63
2023-04-07T07:25:50.569Z,140.63
2023-04-07T07:26:50.543Z,140.63
2023-04-07T07:27:50.507Z,140.63
2023-04-07T07:28:50.482Z,140.63
2023-04-07T07:29:50.463Z,135.00
2023-04-07T07:30:50.428Z,135.00
2023-04-07T07:31:50.396Z,129.38
2023-04-07T07:32:50.399Z,123.75
2023-04-07T07:33:50.734Z,118.13
2023-04-07T07:34:50.305Z,118.13
2023-04-07T07:35:50.295Z,112.50
2023-04-07T07:36:50.246Z,106.88
2023-04-07T07:37:50.226Z,101.25
2023-04-07T07:38:50.213Z,101.25
2023-04-07T07:39:50.159Z,95.63
2023-04-07T07:40:50.130Z,95.63
2023-04-07T07:41:50.100Z,90.00
2023-04-07T07:42:50.073Z,90.00
2023-04-07T07:43:50.161Z,90.00
2023-04-07T07:44:50.028Z,90.00
2023-04-07T07:45:49.988Z,90.00
2023-04-07T07:46:49.978Z,90.00
2023-04-07T07:47:49.964Z,90.00
2023-04-07T07:48:49.897Z,90.00
2023-04-07T07:49:49.870Z,90.00
2023-04-07T07:50:49.840Z,95.63
2023-04-07T07:51:49.812Z,95.63
2023-04-07T07:52:49.790Z,101.25
2023-04-07T07:53:50.041Z,101.25
2023-04-07T07:54:49.750Z,101.25
2023-04-07T07:55:49.693Z,106.88
2023-04-07T07:56:49.668Z,106.88
2023-04-07T07:57:49.635Z,112.50
2023-04-07T07:58:49.605Z,112.50
2023-04-07T07:59:49.577Z,112.50
2023-04-07T08:00:49.551Z,112.50
2023-04-07T08:01:49.545Z,118.13
2023-04-07T08:02:49.537Z,118.13
2023-04-07T08:03:50.059Z,118.13
2023-04-07T08:04:49.470Z,118.13
2023-04-07T08:05:49.405Z,123.75
2023-04-07T08:06:49.375Z,123.75
2023-04-07T08:07:49.347Z,123.75
2023-04-07T08:08:49.321Z,129.38
2023-04-07T08:09:49.289Z,129.38
2023-04-07T08:10:49.278Z,135.00
2023-04-07T08:11:49.226Z,135.00
2023-04-07T08:12:49.207Z,140.63
2023-04-07T08:13:49.551Z,140.63
2023-04-07T08:14:49.145Z,146.25
2023-04-07T08:15:49.171Z,146.25
2023-04-07T08:16:49.091Z,146.25
2023-04-07T08:17:49.065Z,151.88
2023-04-07T08:18:49.269Z,151.88
2023-04-07T08:19:48.995Z,157.50
2023-04-07T08:20:48.967Z,157.50
2023-04-07T08:21:48.934Z,163.13
2023-04-07T08:22:48.908Z,168.75
2023-04-07T08:23:49.115Z,168.75
2023-04-07T08:24:48.854Z,174.38
2023-04-07T08:25:48.820Z,180.00
2023-04-07T08:26:48.814Z,180.00
2023-04-07T08:27:48.760Z,185.63
2023-04-07T08:28:48.733Z,191.25
2023-04-07T08:29:48.709Z,196.88
2023-04-07T08:30:48.675Z,202.50
2023-04-07T08:31:48.717Z,208.13
2023-04-07T08:32:48.704Z,208.13
2023-04-07T08:33:48.817Z,213.75
2023-04-07T08:34:48.565Z,219.38
2023-04-07T08:35:48.621Z,225.00
2023-04-07T08:36:48.498Z,230.63
2023-04-07T08:37:48.468Z,236.25
2023-04-07T08:38:48.442Z,247.50
2023-04-07T08:39:48.413Z,253.13
2023-04-07T08:40:48.382Z,258.75
2023-04-07T08:41:48.372Z,264.38
2023-04-07T08:42:48.362Z,270.00
2023-04-07T08:43:48.499Z,275.63
2023-04-07T08:44:48.269Z,281.25
2023-04-07T08:45:48.234Z,281.25
2023-04-07T08:46:48.228Z,292.50
2023-04-07T08:47:48.299Z,292.50
2023-04-07T08:48:48.148Z,292.50
2023-04-07T08:49:48.115Z,298.13
2023-04-07T08:50:48.090Z,298.13
2023-04-07T08:51:48.057Z,303.75
2023-04-07T08:52:48.035Z,292.50
2023-04-07T08:53:48.175Z,292.50
2023-04-07T08:54:47.977Z,292.50
2023-04-07T08:55:47.940Z,281.25
2023-04-07T08:56:47.917Z,275.63
2023-04-07T08:57:47.895Z,264.38
2023-04-07T08:58:47.875Z,258.75
2023-04-07T08:59:47.828Z,253.13
2023-04-07T09:00:47.824Z,253.13
2023-04-07T09:01:47.805Z,253.13
2023-04-07T09:02:47.858Z,258.75
2023-04-07T09:03:47.942Z,264.38
2023-04-07T09:04:47.680Z,275.63
2023-04-07T09:05:47.678Z,281.25
2023-04-07T09:06:47.624Z,292.50
2023-04-07T09:07:47.625Z,303.75
2023-04-07T09:08:47.568Z,309.38
2023-04-07T09:09:47.529Z,309.38
2023-04-07T09:10:47.504Z,315.00
2023-04-07T09:11:47.473Z,320.63
2023-04-07T09:12:47.447Z,326.25
2023-04-07T09:13:47.598Z,337.50
2023-04-07T09:14:47.413Z,343.13
2023-04-07T09:15:47.368Z,354.38
2023-04-07T09:16:47.400Z,360.00
2023-04-07T09:17:47.338Z,365.63
2023-04-07T09:18:47.270Z,376.88
2023-04-07T09:19:47.245Z,371.25
2023-04-07T09:20:47.212Z,371.25
2023-04-07T09:21:47.187Z,371.25
2023-04-07T09:22:47.154Z,371.25
2023-04-07T09:23:47.353Z,360.00
2023-04-07T09:24:47.101Z,354.38
2023-04-07T09:25:47.068Z,360.00
2023-04-07T09:26:47.040Z,365.63
2023-04-07T09:27:47.010Z,360.00
2023-04-07T09:28:46.984Z,371.25
2023-04-07T09:29:46.950Z,371.25
2023-04-07T09:30:46.950Z,360.00
2023-04-07T09:31:46.966Z,360.00
2023-04-07T09:32:46.889Z,354.38
2023-04-07T09:33:47.024Z,348.75
2023-04-07T09:34:46.812Z,343.13
2023-04-07T09:35:46.799Z,343.13
2023-04-07T09:36:46.755Z,343.13
2023-04-07T09:37:46.723Z,354.38
2023-04-07T09:38:46.698Z,360.00
2023-04-07T09:39:46.667Z,371.25
2023-04-07T09:40:46.644Z,371.25
2023-04-07T09:41:46.642Z,371.25
2023-04-07T09:42:46.580Z,360.00
2023-04-07T09:43:46.913Z,343.13
2023-04-07T09:44:46.525Z,343.13
2023-04-07T09:45:46.508Z,337.50
2023-04-07T09:46:46.487Z,320.63
2023-04-07T09:47:46.469Z,303.75
2023-04-07T09:48:46.413Z,292.50
2023-04-07T09:49:46.383Z,303.75
2023-04-07T09:50:46.393Z,315.00
2023-04-07T09:51:46.325Z,309.38
2023-04-07T09:52:46.303Z,309.38
2023-04-07T09:53:46.538Z,309.38
2023-04-07T09:54:46.242Z,309.38
2023-04-07T09:55:46.237Z,303.75
2023-04-07T09:56:46.190Z,298.13
2023-04-07T09:57:46.167Z,303.75
2023-04-07T09:58:46.134Z,298.13
2023-04-07T09:59:46.099Z,298.13
2023-04-07T10:00:46.071Z,286.88
2023-04-07T10:01:46.116Z,270.00
2023-04-07T10:02:46.228Z,258.75
2023-04-07T10:03:46.295Z,264.38
2023-04-07T10:04:45.959Z,286.88
2023-04-07T10:05:45.930Z,309.38
2023-04-07T10:06:45.903Z,320.63
2023-04-07T10:07:45.874Z,343.13
2023-04-07T10:08:45.961Z,365.63
2023-04-07T10:09:45.822Z,365.63
2023-04-07T10:10:45.788Z,360.00
2023-04-07T10:11:45.760Z,371.25
2023-04-07T10:12:45.734Z,382.50
2023-04-07T10:13:46.021Z,388.13
2023-04-07T10:14:45.679Z,393.75
2023-04-07T10:15:45.648Z,393.75
2023-04-07T10:16:45.672Z,376.88
2023-04-07T10:17:45.626Z,365.63
2023-04-07T10:18:45.589Z,360.00
2023-04-07T10:19:45.554Z,365.63
2023-04-07T10:20:45.514Z,382.50
2023-04-07T10:21:45.486Z,393.75
2023-04-07T10:22:45.450Z,399.38
2023-04-07T10:23:45.623Z,405.00
2023-04-07T10:24:45.393Z,421.88
2023-04-07T10:25:45.363Z,427.50
2023-04-07T10:26:45.334Z,427.50
2023-04-07T10:27:45.308Z,433.13
2023-04-07T10:28:45.279Z,438.75
2023-04-07T10:29:45.262Z,438.75
2023-04-07T10:30:45.277Z,455.63
2023-04-07T10:31:45.207Z,450.00
2023-04-07T10:32:45.212Z,455.63
2023-04-07T10:33:45.231Z,455.63
2023-04-07T10:34:45.132Z,455.63
2023-04-07T10:35:45.136Z,455.63
2023-04-07T10:36:45.053Z,455.63
2023-04-07T10:37:45.041Z,455.63
2023-04-07T10:38:44.997Z,455.63
2023-04-07T10:39:44.968Z,455.63
2023-04-07T10:40:44.944Z,455.63
2023-04-07T10:41:44.912Z,455.63
2023-04-07T10:42:44.881Z,450.00
2023-04-07T10:43:44.875Z,444.38
2023-04-07T10:44:44.828Z,444.38
2023-04-07T10:45:44.799Z,438.75
2023-04-07T10:46:44.816Z,433.13
2023-04-07T10:47:44.750Z,438.75
2023-04-07T10:48:44.738Z,444.38
2023-04-07T10:49:44.687Z,433.13
2023-04-07T10:50:44.678Z,427.50
2023-04-07T10:51:44.631Z,427.50
2023-04-07T10:52:44.627Z,433.13
2023-04-07T10:53:44.574Z,421.88
2023-04-07T10:54:44.546Z,421.88
2023-04-07T10:55:44.518Z,416.25
2023-04-07T10:56:44.489Z,416.25
2023-04-07T10:57:44.467Z,416.25
2023-04-07T10:58:44.433Z,416.25
2023-04-07T10:59:44.406Z,416.25
2023-04-07T11:00:44.378Z,416.25
2023-04-07T11:01:44.442Z,416.25
2023-04-07T11:02:44.700Z,410.63
2023-04-07T11:03:44.364Z,416.25
2023-04-07T11:04:44.505Z,405.00
2023-04-07T11:05:44.236Z,399.38
2023-04-07T11:06:44.230Z,393.75
2023-04-07T11:07:44.179Z,382.50
2023-04-07T11:08:45.181Z,371.25
2023-04-07T11:09:44.126Z,365.63
2023-04-07T11:10:44.094Z,365.63
2023-04-07T11:11:44.068Z,354.38
2023-04-07T11:12:44.049Z,348.75
2023-04-07T11:13:44.013Z,343.13
2023-04-07T11:14:43.977Z,337.50
2023-04-07T11:15:43.953Z,337.50
2023-04-07T11:16:43.933Z,348.75
2023-04-07T11:17:43.921Z,337.50
2023-04-07T11:18:43.874Z,326.25
2023-04-07T11:19:43.841Z,326.25
2023-04-07T11:20:45.894Z,331.88
2023-04-07T11:21:43.791Z,309.38
2023-04-07T11:22:43.771Z,298.13
2023-04-07T11:23:43.723Z,298.13
2023-04-07T11:24:43.695Z,298.13
2023-04-07T11:25:43.666Z,286.88
2023-04-07T11:26:43.635Z,270.00
2023-04-07T11:27:43.610Z,253.13
2023-04-07T11:28:43.578Z,247.50
2023-04-07T11:29:43.550Z,241.88
2023-04-07T11:30:43.523Z,241.88
2023-04-07T11:31:43.526Z,236.25
2023-04-07T11:32:43.502Z,230.63
2023-04-07T11:33:43.436Z,241.88
2023-04-07T11:34:43.403Z,253.13
2023-04-07T11:35:43.395Z,241.88
2023-04-07T11:36:43.347Z,213.75
2023-04-07T11:37:43.324Z,202.50
2023-04-07T11:38:44.896Z,185.63
2023-04-07T11:39:43.265Z,196.88
2023-04-07T11:40:43.232Z,202.50
2023-04-07T11:41:43.206Z,202.50
2023-04-07T11:42:43.171Z,202.50
2023-04-07T11:43:43.301Z,196.88
2023-04-07T11:44:43.112Z,196.88
2023-04-07T11:45:43.082Z,202.50
2023-04-07T11:46:43.066Z,196.88
2023-04-07T11:47:43.102Z,191.25
2023-04-07T11:48:42.997Z,180.00
2023-04-07T11:49:42.968Z,174.38
2023-04-07T11:50:42.942Z,168.75
2023-04-07T11:51:42.906Z,168.75
2023-04-07T11:52:42.880Z,168.75
2023-04-07T11:53:42.848Z,163.13
2023-04-07T11:54:42.844Z,163.13
2023-04-07T11:55:42.790Z,157.50
2023-04-07T11:56:42.758Z,151.88
2023-04-07T11:57:42.728Z,146.25
2023-04-07T11:58:42.697Z,140.63
2023-04-07T11:59:42.668Z,140.63
2023-04-07T12:00:42.642Z,135.00
2023-04-07T12:01:42.702Z,129.38
2023-04-07T12:02:42.785Z,123.75
2023-04-07T12:03:42.696Z,118.13
2023-04-07T12:04:42.658Z,112.50
2023-04-07T12:05:42.491Z,112.50
2023-04-07T12:06:42.458Z,106.88
2023-04-07T12:07:42.431Z,106.88
2023-04-07T12:08:42.405Z,106.88
2023-04-07T12:09:42.372Z,106.88
2023-04-07T12:10:42.358Z,106.88
2023-04-07T12:11:42.313Z,112.50
2023-04-07T12:12:42.279Z,112.50
2023-04-07T12:13:42.245Z,118.13
2023-04-07T12:14:42.215Z,123.75
2023-04-07T12:15:42.190Z,129.38
2023-04-07T12:16:42.209Z,135.00
2023-04-07T12:17:42.181Z,140.63
2023-04-07T12:18:42.094Z,146.25
2023-04-07T12:19:42.077Z,151.88
2023-04-07T12:20:42.033Z,157.50
2023-04-07T12:21:42.010Z,157.50
2023-04-07T12:22:41.976Z,163.13
2023-04-07T12:23:41.945Z,168.75
2023-04-07T12:24:41.965Z,168.75
2023-04-07T12:25:41.884Z,174.38
2023-04-07T12:26:41.874Z,174.38
2023-04-07T12:27:43.414Z,180.00
2023-04-07T12:28:41.796Z,185.63
2023-04-07T12:29:41.768Z,185.63
2023-04-07T12:30:41.734Z,191.25
2023-04-07T12:31:41.752Z,196.88
2023-04-07T12:32:41.679Z,196.88
2023-04-07T12:33:41.645Z,196.88
2023-04-07T12:34:41.613Z,208.13
2023-04-07T12:35:41.597Z,208.13
2023-04-07T12:36:41.553Z,208.13
2023-04-07T12:37:41.522Z,208.13
2023-04-07T12:38:41.493Z,213.75
2023-04-07T12:39:41.465Z,219.38
2023-04-07T12:40:41.448Z,230.63
2023-04-07T12:41:41.406Z,236.25
2023-04-07T12:42:41.396Z,236.25
2023-04-07T12:43:41.345Z,241.88
2023-04-07T12:44:41.313Z,241.88
2023-04-07T12:45:41.318Z,247.50
2023-04-07T12:46:41.256Z,247.50
2023-04-07T12:47:41.288Z,253.13
2023-04-07T12:48:41.198Z,258.75
2023-04-07T12:49:41.165Z,264.38